createdAt,value
2022-07-26T00:01:38.539Z,7.95
2022-07-26T00:04:05.422Z,5.15
2022-07-26T00:06:31.935Z,4.55
2022-07-26T00:08:58.464Z,6.07
2022-07-26T00:11:25.733Z,2.78
2022-07-26T00:13:52.430Z,4.93
2022-07-26T00:16:20.622Z,5.20
2022-07-26T00:18:47.778Z,6.28
2022-07-26T00:21:14.243Z,5.18
2022-07-26T00:23:40.684Z,3.22
2022-07-26T00:26:07.212Z,4.20
2022-07-26T00:28:34.037Z,3.72
2022-07-26T00:31:00.605Z,4.97
2022-07-26T00:33:28.505Z,6.00
2022-07-26T00:35:55.177Z,11.77
2022-07-26T00:38:21.661Z,6.22
2022-07-26T00:40:48.245Z,6.72
2022-07-26T00:43:14.656Z,8.43
2022-07-26T00:45:41.390Z,7.93
2022-07-26T00:48:07.889Z,11.07
2022-07-26T00:50:34.803Z,6.78
2022-07-26T00:53:01.885Z,6.18
2022-07-26T00:55:28.721Z,10.02
2022-07-26T00:57:55.223Z,8.68
2022-07-26T01:00:27.632Z,7.45
2022-07-26T01:02:56.132Z,8.55
2022-07-26T01:05:23.722Z,11.07
2022-07-26T01:07:50.919Z,19.70
2022-07-26T01:10:17.623Z,19.05
2022-07-26T01:12:45.426Z,17.85
2022-07-26T01:15:14.473Z,23.55
2022-07-26T01:17:41.794Z,21.27
2022-07-26T01:20:10.514Z,28.17
2022-07-26T01:22:37.778Z,20.90
2022-07-26T01:25:06.110Z,21.40
2022-07-26T01:27:34.518Z,24.17
2022-07-26T01:30:01.408Z,23.17
2022-07-26T01:32:29.283Z,22.58
2022-07-26T01:34:56.544Z,32.10
2022-07-26T01:37:24.117Z,19.73
2022-07-26T01:39:55.355Z,18.67
2022-07-26T01:42:22.154Z,15.77
2022-07-26T01:44:49.109Z,9.75
2022-07-26T01:47:16.415Z,11.07
2022-07-26T01:49:44.973Z,7.97
2022-07-26T01:52:11.524Z,9.50
2022-07-26T01:54:38.409Z,8.15
2022-07-26T01:57:05.122Z,11.20
2022-07-26T01:59:32.863Z,9.90
2022-07-26T02:02:00.068Z,12.48
2022-07-26T02:04:45.845Z,16.98
2022-07-26T02:07:13.475Z,21.35
2022-07-26T02:09:40.679Z,18.38
2022-07-26T02:12:07.863Z,25.42
2022-07-26T02:14:34.932Z,32.90
2022-07-26T02:17:02.292Z,38.35
2022-07-26T02:19:29.718Z,25.17
2022-07-26T02:21:56.275Z,23.65
2022-07-26T02:24:23.354Z,22.45
2022-07-26T02:26:50.072Z,29.02
2022-07-26T02:29:16.855Z,16.60
2022-07-26T02:31:48.479Z,25.98
2022-07-26T02:34:16.603Z,16.90
2022-07-26T02:36:43.820Z,20.95
2022-07-26T02:39:12.236Z,24.48
2022-07-26T02:41:38.948Z,24.15
2022-07-26T02:44:06.684Z,17.05
2022-07-26T02:46:33.527Z,17.48
2022-07-26T02:49:00.886Z,21.15
2022-07-26T02:51:28.483Z,21.17
2022-07-26T02:53:55.093Z,23.55
2022-07-26T02:56:21.882Z,16.38
2022-07-26T02:58:48.648Z,17.67
2022-07-26T03:01:15.225Z,17.67
2022-07-26T03:03:45.910Z,19.73
2022-07-26T03:06:15.179Z,11.98
2022-07-26T03:08:41.705Z,12.88
2022-07-26T03:11:11.955Z,11.80
2022-07-26T03:13:38.779Z,13.70
2022-07-26T03:16:05.765Z,14.55
2022-07-26T03:18:32.335Z,13.35
2022-07-26T03:20:58.815Z,9.27
2022-07-26T03:23:28.756Z,15.18
2022-07-26T03:25:55.201Z,8.65
2022-07-26T03:28:21.655Z,11.13
2022-07-26T03:30:48.051Z,11.40
2022-07-26T03:33:14.445Z,11.52
2022-07-26T03:35:40.950Z,10.73
2022-07-26T03:38:08.281Z,5.93
2022-07-26T03:40:35.134Z,10.18
2022-07-26T03:43:01.760Z,7.97
2022-07-26T03:45:29.789Z,8.00
2022-07-26T03:47:58.269Z,8.48
2022-07-26T03:50:24.676Z,10.20
2022-07-26T03:52:51.130Z,10.50
2022-07-26T03:55:36.813Z,8.82
2022-07-26T03:58:03.489Z,7.82
2022-07-26T04:00:30.203Z,5.20
2022-07-26T04:02:56.648Z,10.63
2022-07-26T04:05:23.727Z,6.55
2022-07-26T04:07:53.037Z,4.95
2022-07-26T04:10:20.918Z,4.65
2022-07-26T04:12:47.332Z,13.50
2022-07-26T04:15:16.098Z,8.10
2022-07-26T04:17:42.888Z,4.97
2022-07-26T04:20:11.117Z,11.52
2022-07-26T04:22:38.909Z,5.15
2022-07-26T04:25:07.678Z,4.78
2022-07-26T04:27:34.370Z,8.98
2022-07-26T04:30:00.878Z,5.95
2022-07-26T04:32:27.607Z,5.90
2022-07-26T04:34:54.318Z,4.22
2022-07-26T04:37:20.654Z,2.95
2022-07-26T04:39:49.365Z,5.78
2022-07-26T04:42:19.628Z,3.70
2022-07-26T04:44:46.000Z,4.25
2022-07-26T04:47:12.354Z,4.13
2022-07-26T04:49:38.836Z,2.25
2022-07-26T04:52:05.515Z,2.97
2022-07-26T04:54:32.318Z,2.42
2022-07-26T04:56:58.724Z,2.55
2022-07-26T04:59:25.134Z,3.10
2022-07-26T05:01:51.701Z,3.50
2022-07-26T05:04:18.176Z,2.00
2022-07-26T05:06:45.375Z,2.47
2022-07-26T05:09:12.097Z,3.67
2022-07-26T05:11:38.586Z,2.75
2022-07-26T05:14:05.257Z,4.43
2022-07-26T05:16:31.933Z,4.05
2022-07-26T05:18:58.582Z,2.40
2022-07-26T05:21:25.161Z,4.38
2022-07-26T05:23:51.730Z,3.95
2022-07-26T05:26:19.200Z,2.15
2022-07-26T05:28:45.648Z,2.47
2022-07-26T05:31:12.317Z,3.05
2022-07-26T05:33:39.639Z,2.72
2022-07-26T05:36:06.536Z,2.45
2022-07-26T05:38:33.699Z,2.47
2022-07-26T05:41:00.191Z,3.08
2022-07-26T05:43:27.603Z,1.65
2022-07-26T05:46:09.725Z,2.35
2022-07-26T05:48:36.875Z,1.25
2022-07-26T05:51:04.614Z,3.35
2022-07-26T05:53:31.023Z,2.60
2022-07-26T05:55:57.434Z,2.95
2022-07-26T05:58:23.828Z,2.50
2022-07-26T06:00:52.835Z,5.00
2022-07-26T06:03:22.217Z,6.22
2022-07-26T06:05:54.114Z,2.40
2022-07-26T06:08:21.483Z,1.58
2022-07-26T06:10:48.874Z,1.77
2022-07-26T06:13:15.667Z,2.00
2022-07-26T06:15:43.101Z,4.22
2022-07-26T06:18:10.072Z,1.98
2022-07-26T06:20:41.265Z,1.73
2022-07-26T06:23:07.845Z,1.23
2022-07-26T06:25:35.767Z,1.05
2022-07-26T06:28:07.725Z,2.40
2022-07-26T06:30:39.003Z,1.00
2022-07-26T06:33:06.088Z,1.52
2022-07-26T06:35:35.220Z,1.10
2022-07-26T06:38:03.417Z,1.20
2022-07-26T06:40:31.167Z,1.77
2022-07-26T06:43:01.355Z,1.48
2022-07-26T06:45:34.003Z,5.20
2022-07-26T06:48:00.663Z,1.00
2022-07-26T06:50:28.389Z,0.98
2022-07-26T06:52:55.138Z,1.25
2022-07-26T06:55:21.696Z,1.17
2022-07-26T06:57:50.188Z,0.80
2022-07-26T07:00:19.433Z,1.15
2022-07-26T07:02:46.256Z,2.30
2022-07-26T07:05:13.109Z,1.48
2022-07-26T07:07:42.141Z,3.42
2022-07-26T07:10:10.003Z,0.57
2022-07-26T07:12:36.450Z,5.65
2022-07-26T07:15:03.374Z,2.13
2022-07-26T07:17:29.977Z,1.23
2022-07-26T07:19:57.700Z,2.17
2022-07-26T07:22:24.321Z,0.95
2022-07-26T07:24:51.165Z,3.25
2022-07-26T07:27:17.858Z,0.60
2022-07-26T07:29:44.670Z,2.30
2022-07-26T07:32:18.531Z,0.93
2022-07-26T07:34:48.007Z,0.65
2022-07-26T07:37:17.259Z,0.63
2022-07-26T07:39:44.099Z,0.77
2022-07-26T07:42:15.649Z,2.08
2022-07-26T07:44:43.029Z,0.55
2022-07-26T07:47:09.505Z,0.45
2022-07-26T07:49:36.499Z,0.60
2022-07-26T07:52:05.754Z,4.45
2022-07-26T07:54:32.251Z,0.50
2022-07-26T07:56:59.132Z,0.43
2022-07-26T07:59:26.182Z,0.82
2022-07-26T08:01:52.738Z,0.57
2022-07-26T08:04:20.490Z,0.70
2022-07-26T08:06:51.081Z,0.70
2022-07-26T08:09:19.032Z,1.13
2022-07-26T08:11:45.908Z,0.98
2022-07-26T08:14:18.114Z,0.30
2022-07-26T08:16:52.188Z,0.45
2022-07-26T08:19:40.858Z,0.90
2022-07-26T08:22:14.933Z,1.65
2022-07-26T08:24:41.598Z,1.55
2022-07-26T08:27:08.111Z,1.63
2022-07-26T08:29:34.534Z,0.98
2022-07-26T08:32:01.097Z,3.80
2022-07-26T08:34:27.719Z,2.75
2022-07-26T08:37:15.411Z,0.60
2022-07-26T08:39:40.862Z,0.82
2022-07-26T08:42:22.730Z,1.63
2022-07-26T08:44:50.587Z,0.50
2022-07-26T08:47:35.377Z,2.60
2022-07-26T08:50:05.284Z,0.45
2022-07-26T08:52:32.299Z,0.50
2022-07-26T08:54:58.790Z,0.75
2022-07-26T08:57:25.226Z,1.83
2022-07-26T09:00:18.277Z,0.80
2022-07-26T09:02:45.510Z,4.20
2022-07-26T09:05:12.587Z,0.40
2022-07-26T09:07:40.153Z,1.25
2022-07-26T09:10:09.638Z,1.10
2022-07-26T09:12:37.797Z,1.73
2022-07-26T09:15:06.836Z,0.30
2022-07-26T09:17:44.015Z,0.40
2022-07-26T09:20:24.282Z,0.63
2022-07-26T09:23:07.682Z,2.13
2022-07-26T09:25:35.574Z,0.30
2022-07-26T09:28:03.776Z,0.77
2022-07-26T09:30:32.722Z,0.68
2022-07-26T09:33:05.929Z,1.10
2022-07-26T09:35:52.128Z,0.88
2022-07-26T09:38:19.499Z,0.93
2022-07-26T09:40:46.797Z,0.35
2022-07-26T09:43:19.819Z,0.60
2022-07-26T09:46:03.673Z,1.58
2022-07-26T09:48:52.321Z,0.60
2022-07-26T09:51:34.782Z,1.35
2022-07-26T09:54:02.013Z,0.50
2022-07-26T09:56:49.168Z,0.50
2022-07-26T09:59:24.008Z,1.65
2022-07-26T10:01:52.230Z,0.47
2022-07-26T10:04:19.362Z,0.40
2022-07-26T10:06:46.281Z,4.20
2022-07-26T10:09:13.480Z,1.75
2022-07-26T10:11:44.699Z,0.95
2022-07-26T10:14:41.519Z,1.23
2022-07-26T10:17:31.765Z,1.35
2022-07-26T10:20:10.720Z,0.68
2022-07-26T10:22:47.295Z,1.33
2022-07-26T10:25:19.775Z,0.65
2022-07-26T10:27:54.536Z,1.08
2022-07-26T10:30:33.818Z,2.20
2022-07-26T10:33:02.898Z,0.50
2022-07-26T10:35:41.260Z,0.60
2022-07-26T10:38:10.199Z,1.20
2022-07-26T10:40:38.430Z,1.05
2022-07-26T10:43:39.597Z,0.65
2022-07-26T10:46:13.471Z,0.50
2022-07-26T10:49:00.057Z,1.83
2022-07-26T10:51:28.424Z,2.53
2022-07-26T10:54:03.003Z,0.40
2022-07-26T10:56:33.519Z,0.65
2022-07-26T10:59:01.070Z,0.90
2022-07-26T11:01:35.289Z,0.52
2022-07-26T11:04:02.036Z,0.63
2022-07-26T11:06:30.237Z,0.50
2022-07-26T11:08:56.656Z,0.98
2022-07-26T11:11:33.384Z,0.57
2022-07-26T11:14:13.253Z,0.82
2022-07-26T11:16:48.524Z,1.33
2022-07-26T11:19:19.954Z,0.47
2022-07-26T11:21:53.384Z,0.50
2022-07-26T11:24:21.913Z,0.75
2022-07-26T11:26:48.669Z,0.75
2022-07-26T11:29:17.615Z,1.10
2022-07-26T11:31:51.389Z,1.42
2022-07-26T11:34:28.484Z,0.40
2022-07-26T11:36:57.111Z,1.13
2022-07-26T11:39:25.469Z,0.40
2022-07-26T11:42:00.529Z,0.40
2022-07-26T11:44:27.859Z,2.67
2022-07-26T11:46:54.482Z,0.38
2022-07-26T11:49:27.702Z,0.40
2022-07-26T11:52:09.081Z,0.40
2022-07-26T11:54:50.633Z,0.60
2022-07-26T11:57:17.985Z,0.45
2022-07-26T11:59:46.179Z,0.30
2022-07-26T12:02:13.955Z,0.50
2022-07-26T12:04:43.243Z,0.47
2022-07-26T12:07:18.401Z,0.75
2022-07-26T12:09:54.308Z,0.60
2022-07-26T12:12:27.417Z,0.35
2022-07-26T12:15:01.677Z,0.70
2022-07-26T12:17:35.102Z,0.30
2022-07-26T12:20:11.729Z,3.00
2022-07-26T12:22:38.713Z,0.90
2022-07-26T12:25:05.746Z,0.30
2022-07-26T12:27:33.861Z,0.38
2022-07-26T12:30:03.343Z,0.30
2022-07-26T12:32:33.700Z,0.95
2022-07-26T12:35:02.358Z,0.30
2022-07-26T12:37:39.564Z,0.47
2022-07-26T12:40:12.366Z,0.32
2022-07-26T12:43:05.114Z,0.65
2022-07-26T12:45:33.648Z,2.67
2022-07-26T12:48:02.300Z,0.50
2022-07-26T12:50:31.351Z,0.30
2022-07-26T12:53:08.660Z,0.45
2022-07-26T12:55:35.948Z,0.98
2022-07-26T12:58:02.507Z,0.38
2022-07-26T13:00:29.925Z,0.50
2022-07-26T13:02:57.337Z,0.93
2022-07-26T13:05:23.943Z,0.55
2022-07-26T13:07:51.654Z,0.50
2022-07-26T13:10:35.387Z,0.52
2022-07-26T13:13:02.796Z,1.90
2022-07-26T13:15:35.229Z,1.45
2022-07-26T13:18:05.462Z,0.32
2022-07-26T13:20:32.653Z,0.40
2022-07-26T13:22:59.160Z,0.75
2022-07-26T13:25:30.013Z,0.45
2022-07-26T13:27:59.923Z,1.23
2022-07-26T13:30:26.558Z,0.77
2022-07-26T13:32:53.021Z,0.70
2022-07-26T13:35:19.581Z,0.80
2022-07-26T13:37:46.068Z,0.32
2022-07-26T13:40:12.663Z,9.10
2022-07-26T13:42:39.415Z,0.60
2022-07-26T13:45:06.841Z,0.47
2022-07-26T13:47:33.264Z,0.95
2022-07-26T13:49:59.746Z,2.47
2022-07-26T13:52:26.223Z,0.75
2022-07-26T13:54:53.198Z,0.95
2022-07-26T13:57:19.639Z,0.57
2022-07-26T13:59:46.092Z,0.47
2022-07-26T14:02:12.811Z,0.80
2022-07-26T14:04:39.353Z,0.50
2022-07-26T14:07:05.774Z,0.40
2022-07-26T14:09:32.744Z,0.52
2022-07-26T14:11:59.290Z,0.70
2022-07-26T14:14:25.794Z,0.40
2022-07-26T14:16:52.461Z,0.65
2022-07-26T14:19:19.023Z,0.80
2022-07-26T14:21:47.457Z,0.50
2022-07-26T14:24:26.499Z,0.50
2022-07-26T14:26:56.878Z,0.63
2022-07-26T14:29:25.334Z,0.40
2022-07-26T14:31:51.983Z,0.50
2022-07-26T14:34:18.550Z,1.08
2022-07-26T14:36:45.153Z,1.10
2022-07-26T14:39:11.790Z,0.90
2022-07-26T14:41:38.301Z,0.77
2022-07-26T14:44:04.871Z,0.65
2022-07-26T14:46:31.547Z,0.50
2022-07-26T14:48:58.223Z,0.32
2022-07-26T14:51:24.953Z,0.60
2022-07-26T14:53:51.929Z,0.45
2022-07-26T14:56:18.394Z,0.52
2022-07-26T14:58:44.830Z,1.17
2022-07-26T15:01:11.298Z,0.57
2022-07-26T15:03:37.882Z,0.63
2022-07-26T15:06:04.522Z,0.50
2022-07-26T15:08:30.952Z,0.73
2022-07-26T15:10:57.559Z,0.75
2022-07-26T15:13:24.187Z,0.60
2022-07-26T15:15:50.731Z,0.77
2022-07-26T15:18:17.295Z,2.67
2022-07-26T15:20:43.908Z,2.05
2022-07-26T15:23:11.962Z,0.75
2022-07-26T15:25:38.530Z,9.85
2022-07-26T15:28:05.614Z,0.57
2022-07-26T15:30:33.278Z,0.85
2022-07-26T15:33:01.860Z,4.15
2022-07-26T15:35:32.713Z,1.80
2022-07-26T15:37:59.608Z,2.13
2022-07-26T15:40:26.248Z,1.50
2022-07-26T15:42:52.926Z,1.45
2022-07-26T15:45:20.231Z,1.45
2022-07-26T15:48:04.403Z,1.23
2022-07-26T15:50:34.970Z,1.65
2022-07-26T15:53:01.642Z,3.30
2022-07-26T15:55:28.313Z,2.10
2022-07-26T15:57:55.016Z,9.15
2022-07-26T16:00:22.051Z,6.25
2022-07-26T16:02:48.600Z,3.17
2022-07-26T16:05:15.181Z,4.47
2022-07-26T16:07:43.422Z,5.45
2022-07-26T16:14:12.215Z,2.88
2022-07-26T16:16:53.690Z,5.32
2022-07-26T16:20:09.737Z,3.55
2022-07-26T16:22:57.230Z,4.90
2022-07-26T16:25:39.358Z,7.70
2022-07-26T16:28:13.817Z,5.60
2022-07-26T16:30:55.285Z,3.25
2022-07-26T16:33:45.799Z,5.63
2022-07-26T16:36:20.820Z,3.13
2022-07-26T16:40:54.783Z,4.10
2022-07-26T16:42:08.424Z,4.93
2022-07-26T16:44:48.613Z,6.75
2022-07-26T16:48:00.124Z,2.17
2022-07-26T16:50:39.583Z,2.63
2022-07-26T16:53:12.889Z,5.32
2022-07-26T16:55:39.887Z,4.85
2022-07-26T16:58:06.576Z,2.45
2022-07-26T17:00:35.920Z,4.22
2022-07-26T17:03:02.772Z,3.17
2022-07-26T17:05:31.603Z,3.78
2022-07-26T17:08:02.527Z,9.40
2022-07-26T17:10:29.408Z,5.30
2022-07-26T17:13:01.419Z,5.82
2022-07-26T17:15:28.304Z,4.00
2022-07-26T17:17:54.991Z,2.00
2022-07-26T17:20:22.244Z,3.90
2022-07-26T17:22:51.490Z,2.28
2022-07-26T17:25:18.138Z,1.42
2022-07-26T17:27:45.373Z,1.33
2022-07-26T17:30:12.574Z,1.60
2022-07-26T17:32:39.462Z,1.35
2022-07-26T17:35:11.484Z,2.58
2022-07-26T17:37:59.558Z,2.72
2022-07-26T17:40:49.513Z,1.30
2022-07-26T17:43:18.685Z,1.00
2022-07-26T17:45:46.014Z,4.15
2022-07-26T17:48:13.091Z,1.10
2022-07-26T17:50:50.148Z,0.70
2022-07-26T17:53:21.782Z,0.90
2022-07-26T18:01:50.436Z,0.75
2022-07-26T18:05:12.405Z,1.35
2022-07-26T18:13:05.900Z,3.13
2022-07-26T18:16:30.036Z,0.93
2022-07-26T18:19:19.487Z,0.52
2022-07-26T18:22:14.962Z,0.60
2022-07-26T18:27:56.564Z,1.23
2022-07-26T18:30:24.895Z,0.80
2022-07-26T18:32:51.771Z,0.93
2022-07-26T18:35:28.483Z,0.70
2022-07-26T18:38:07.743Z,0.82
2022-07-26T18:40:52.765Z,1.17
2022-07-26T18:46:33.675Z,0.90
2022-07-26T18:49:07.034Z,0.95
2022-07-26T18:51:52.277Z,0.75
2022-07-26T18:54:40.717Z,1.45
2022-07-26T18:57:18.458Z,0.65
2022-07-26T18:59:45.330Z,1.05
2022-07-26T19:02:18.730Z,0.95
2022-07-26T19:04:55.419Z,0.80
2022-07-26T19:07:32.381Z,1.08
2022-07-26T19:09:59.818Z,0.80
2022-07-26T19:12:27.892Z,1.73
2022-07-26T19:18:57.539Z,0.60
2022-07-26T19:22:22.848Z,1.02
2022-07-26T19:24:54.944Z,0.60
2022-07-26T19:27:21.816Z,0.68
2022-07-26T19:29:49.252Z,0.60
2022-07-26T19:32:17.641Z,1.05
2022-07-26T19:34:44.306Z,0.68
2022-07-26T19:37:11.281Z,0.95
2022-07-26T19:39:45.501Z,0.32
2022-07-26T19:42:12.877Z,0.90
2022-07-26T19:44:39.845Z,0.52
2022-07-26T19:47:06.855Z,0.40
2022-07-26T19:49:33.437Z,1.10
2022-07-26T19:52:07.149Z,0.40
2022-07-26T19:54:37.502Z,0.55
2022-07-26T19:57:04.353Z,0.70
2022-07-26T19:59:31.072Z,0.73
2022-07-26T20:01:58.517Z,1.23
2022-07-26T20:04:25.505Z,0.65
2022-07-26T20:07:10.574Z,2.22
2022-07-26T20:09:47.486Z,0.30
2022-07-26T20:15:18.937Z,0.82
2022-07-26T20:17:45.708Z,0.70
2022-07-26T20:20:20.106Z,1.30
2022-07-26T20:22:55.275Z,1.33
2022-07-26T20:34:31.654Z,0.50
2022-07-26T20:38:40.142Z,0.40
2022-07-26T20:41:23.863Z,0.80
2022-07-26T20:45:21.896Z,0.50
2022-07-26T20:47:35.085Z,1.02
2022-07-26T20:50:24.140Z,0.55
2022-07-26T20:53:14.327Z,34.58
2022-07-26T20:56:13.174Z,0.40
2022-07-26T20:59:23.535Z,0.70
2022-07-26T21:02:30.696Z,0.52
2022-07-26T21:04:59.128Z,0.68
2022-07-26T21:07:57.322Z,1.20
2022-07-26T21:10:57.784Z,0.65
2022-07-26T21:13:59.335Z,0.60
2022-07-26T21:16:43.716Z,0.60
2022-07-26T21:20:00.606Z,0.68
2022-07-26T21:22:36.883Z,0.45
2022-07-26T21:25:28.933Z,1.17
2022-07-26T21:27:55.755Z,1.85
2022-07-26T21:30:24.700Z,0.68
2022-07-26T21:33:00.529Z,0.60
2022-07-26T21:35:32.070Z,0.75
2022-07-26T21:38:35.615Z,0.73
2022-07-26T21:41:13.782Z,0.52
2022-07-26T21:44:03.671Z,1.92
2022-07-26T21:46:33.366Z,0.63
2022-07-26T21:49:23.618Z,1.60
2022-07-26T21:51:52.686Z,0.77
2022-07-26T21:54:34.057Z,0.30
2022-07-26T21:57:07.518Z,0.70
2022-07-26T21:59:57.636Z,0.93
2022-07-26T22:05:54.613Z,0.85
2022-07-26T22:08:35.187Z,1.73
2022-07-26T22:11:02.653Z,0.90
2022-07-26T22:13:42.362Z,1.02
2022-07-26T22:16:11.319Z,0.40
2022-07-26T22:18:38.135Z,1.45
2022-07-26T22:21:04.926Z,0.50
2022-07-26T22:23:36.807Z,2.55
2022-07-26T22:26:34.434Z,0.77
2022-07-26T22:29:27.556Z,0.65
2022-07-26T22:32:08.357Z,0.47
2022-07-26T22:35:19.204Z,2.92
2022-07-26T22:41:20.657Z,0.70
2022-07-26T22:44:19.081Z,0.50
2022-07-26T22:47:57.551Z,0.50
2022-07-26T22:50:26.190Z,0.32
2022-07-26T22:55:56.734Z,0.45
2022-07-26T22:59:01.816Z,0.50
2022-07-26T23:01:28.968Z,0.40
2022-07-26T23:04:14.400Z,0.40
2022-07-26T23:07:02.964Z,0.25
2022-07-26T23:09:54.527Z,0.70
2022-07-26T23:12:25.717Z,0.60
2022-07-26T23:15:22.261Z,0.65
2022-07-26T23:18:59.634Z,0.35
2022-07-26T23:25:37.682Z,0.50
2022-07-26T23:28:42.878Z,0.65
2022-07-26T23:31:58.785Z,0.40
2022-07-26T23:38:23.793Z,0.60
2022-07-26T23:41:11.840Z,0.60
2022-07-26T23:43:49.031Z,0.30
2022-07-26T23:46:21.168Z,0.93
2022-07-26T23:49:23.012Z,0.50
2022-07-26T23:52:02.127Z,0.57
2022-07-26T23:54:29.346Z,2.25
2022-07-26T23:56:56.861Z,0.47
2022-07-26T23:59:25.650Z,0.82
